sensor_id;sensor_type;location;lat;lon;timestamp;temperature;humidity
83828;DHT22;74656;48.870;12.562;2024-02-26T00:01:33;6.50;64.00
83828;DHT22;74656;48.870;12.562;2024-02-26T00:04:35;6.50;63.80
83828;DHT22;74656;48.870;12.562;2024-02-26T00:07:37;6.40;64.00
83828;DHT22;74656;48.870;12.562;2024-02-26T00:10:39;6.40;63.90
83828;DHT22;74656;48.870;12.562;2024-02-26T00:13:41;6.40;63.90
83828;DHT22;74656;48.870;12.562;2024-02-26T00:16:43;6.40;63.80
83828;DHT22;74656;48.870;12.562;2024-02-26T00:19:45;6.60;63.10
83828;DHT22;74656;48.870;12.562;2024-02-26T00:22:47;6.40;63.30
83828;DHT22;74656;48.870;12.562;2024-02-26T00:25:49;6.40;63.30
83828;DHT22;74656;48.870;12.562;2024-02-26T00:28:52;6.30;63.10
83828;DHT22;74656;48.870;12.562;2024-02-26T00:31:53;6.40;62.70
83828;DHT22;74656;48.870;12.562;2024-02-26T00:34:56;6.30;63.00
83828;DHT22;74656;48.870;12.562;2024-02-26T00:37:58;6.40;62.80
83828;DHT22;74656;48.870;12.562;2024-02-26T00:41:00;6.40;63.50
83828;DHT22;74656;48.870;12.562;2024-02-26T00:44:01;6.60;65.40
83828;DHT22;74656;48.870;12.562;2024-02-26T00:47:03;6.70;64.20
83828;DHT22;74656;48.870;12.562;2024-02-26T00:50:05;6.80;63.40
83828;DHT22;74656;48.870;12.562;2024-02-26T00:53:07;6.60;63.70
83828;DHT22;74656;48.870;12.562;2024-02-26T00:56:09;6.50;62.70
83828;DHT22;74656;48.870;12.562;2024-02-26T00:59:11;6.30;62.20
83828;DHT22;74656;48.870;12.562;2024-02-26T01:02:13;6.20;62.30
83828;DHT22;74656;48.870;12.562;2024-02-26T01:05:15;6.30;62.10
83828;DHT22;74656;48.870;12.562;2024-02-26T01:08:17;6.40;61.40
83828;DHT22;74656;48.870;12.562;2024-02-26T01:11:18;6.10;61.60
83828;DHT22;74656;48.870;12.562;2024-02-26T01:14:20;6.00;61.70
83828;DHT22;74656;48.870;12.562;2024-02-26T01:17:22;6.00;61.50
83828;DHT22;74656;48.870;12.562;2024-02-26T01:20:24;5.90;61.60
83828;DHT22;74656;48.870;12.562;2024-02-26T01:23:26;5.80;61.90
83828;DHT22;74656;48.870;12.562;2024-02-26T01:26:28;5.80;61.80
83828;DHT22;74656;48.870;12.562;2024-02-26T01:29:30;5.90;61.80
83828;DHT22;74656;48.870;12.562;2024-02-26T01:32:32;5.70;61.80
83828;DHT22;74656;48.870;12.562;2024-02-26T01:35:34;5.80;61.70
83828;DHT22;74656;48.870;12.562;2024-02-26T01:38:36;5.70;61.30
83828;DHT22;74656;48.870;12.562;2024-02-26T01:41:40;5.70;61.40
83828;DHT22;74656;48.870;12.562;2024-02-26T01:44:43;5.60;61.40
83828;DHT22;74656;48.870;12.562;2024-02-26T01:47:45;5.70;61.70
83828;DHT22;74656;48.870;12.562;2024-02-26T01:50:48;5.70;61.30
83828;DHT22;74656;48.870;12.562;2024-02-26T01:53:51;5.60;61.30
83828;DHT22;74656;48.870;12.562;2024-02-26T01:56:53;5.70;61.30
83828;DHT22;74656;48.870;12.562;2024-02-26T01:59:56;5.70;61.00
83828;DHT22;74656;48.870;12.562;2024-02-26T02:02:57;5.80;61.00
83828;DHT22;74656;48.870;12.562;2024-02-26T02:06:00;5.80;60.90
83828;DHT22;74656;48.870;12.562;2024-02-26T02:09:02;5.70;61.00
83828;DHT22;74656;48.870;12.562;2024-02-26T02:12:04;5.70;61.00
83828;DHT22;74656;48.870;12.562;2024-02-26T02:15:08;5.70;60.80
83828;DHT22;74656;48.870;12.562;2024-02-26T02:18:09;5.80;60.70
83828;DHT22;74656;48.870;12.562;2024-02-26T02:21:11;5.80;60.90
83828;DHT22;74656;48.870;12.562;2024-02-26T02:24:14;5.80;60.60
83828;DHT22;74656;48.870;12.562;2024-02-26T02:27:16;5.70;60.60
83828;DHT22;74656;48.870;12.562;2024-02-26T02:30:20;5.80;60.40
83828;DHT22;74656;48.870;12.562;2024-02-26T02:33:23;5.80;60.90
83828;DHT22;74656;48.870;12.562;2024-02-26T02:36:26;5.80;60.60
83828;DHT22;74656;48.870;12.562;2024-02-26T02:39:28;5.70;60.60
83828;DHT22;74656;48.870;12.562;2024-02-26T02:42:29;5.70;60.70
83828;DHT22;74656;48.870;12.562;2024-02-26T02:45:31;5.70;60.50
83828;DHT22;74656;48.870;12.562;2024-02-26T02:48:33;5.60;60.80
83828;DHT22;74656;48.870;12.562;2024-02-26T02:51:36;5.70;60.70
83828;DHT22;74656;48.870;12.562;2024-02-26T02:54:38;5.80;60.50
83828;DHT22;74656;48.870;12.562;2024-02-26T02:57:39;5.70;60.50
83828;DHT22;74656;48.870;12.562;2024-02-26T03:00:41;5.70;60.30
83828;DHT22;74656;48.870;12.562;2024-02-26T03:03:43;5.80;60.10
83828;DHT22;74656;48.870;12.562;2024-02-26T03:06:45;5.80;59.90
83828;DHT22;74656;48.870;12.562;2024-02-26T03:09:47;5.80;59.90
83828;DHT22;74656;48.870;12.562;2024-02-26T03:12:50;5.80;60.00
83828;DHT22;74656;48.870;12.562;2024-02-26T03:15:52;5.90;59.60
83828;DHT22;74656;48.870;12.562;2024-02-26T03:18:53;5.80;59.70
83828;DHT22;74656;48.870;12.562;2024-02-26T03:21:55;5.90;59.60
83828;DHT22;74656;48.870;12.562;2024-02-26T03:24:57;6.00;59.80
83828;DHT22;74656;48.870;12.562;2024-02-26T03:27:59;6.00;59.90
83828;DHT22;74656;48.870;12.562;2024-02-26T03:31:02;6.00;59.80
83828;DHT22;74656;48.870;12.562;2024-02-26T03:34:04;6.10;60.00
83828;DHT22;74656;48.870;12.562;2024-02-26T03:37:06;6.10;59.90
83828;DHT22;74656;48.870;12.562;2024-02-26T03:40:08;6.10;60.00
83828;DHT22;74656;48.870;12.562;2024-02-26T03:43:10;6.10;59.70
83828;DHT22;74656;48.870;12.562;2024-02-26T03:46:12;6.20;59.30
83828;DHT22;74656;48.870;12.562;2024-02-26T03:49:13;6.20;59.10
83828;DHT22;74656;48.870;12.562;2024-02-26T03:52:16;6.30;59.40
83828;DHT22;74656;48.870;12.562;2024-02-26T03:55:18;6.30;59.40
83828;DHT22;74656;48.870;12.562;2024-02-26T03:58:20;6.30;58.80
83828;DHT22;74656;48.870;12.562;2024-02-26T04:01:22;6.20;58.50
83828;DHT22;74656;48.870;12.562;2024-02-26T04:04:25;6.30;58.10
83828;DHT22;74656;48.870;12.562;2024-02-26T04:07:26;6.30;58.20
83828;DHT22;74656;48.870;12.562;2024-02-26T04:10:28;6.40;58.00
83828;DHT22;74656;48.870;12.562;2024-02-26T04:13:30;6.40;57.50
83828;DHT22;74656;48.870;12.562;2024-02-26T04:16:32;6.30;57.30
83828;DHT22;74656;48.870;12.562;2024-02-26T04:19:34;6.40;57.30
83828;DHT22;74656;48.870;12.562;2024-02-26T04:22:36;6.50;57.00
83828;DHT22;74656;48.870;12.562;2024-02-26T04:25:38;6.60;57.00
83828;DHT22;74656;48.870;12.562;2024-02-26T04:28:40;6.70;56.80
83828;DHT22;74656;48.870;12.562;2024-02-26T04:31:42;6.90;56.70
83828;DHT22;74656;48.870;12.562;2024-02-26T04:34:44;7.10;56.30
83828;DHT22;74656;48.870;12.562;2024-02-26T04:37:46;7.30;55.80
83828;DHT22;74656;48.870;12.562;2024-02-26T04:40:48;7.10;55.60
83828;DHT22;74656;48.870;12.562;2024-02-26T04:43:50;7.30;55.40
83828;DHT22;74656;48.870;12.562;2024-02-26T04:46:53;7.40;55.30
83828;DHT22;74656;48.870;12.562;2024-02-26T04:49:55;7.70;54.80
83828;DHT22;74656;48.870;12.562;2024-02-26T04:52:57;7.80;54.10
83828;DHT22;74656;48.870;12.562;2024-02-26T04:55:59;8.00;53.50
83828;DHT22;74656;48.870;12.562;2024-02-26T04:59:01;8.00;53.20
83828;DHT22;74656;48.870;12.562;2024-02-26T05:02:03;8.40;52.60
83828;DHT22;74656;48.870;12.562;2024-02-26T05:05:06;8.50;51.40
83828;DHT22;74656;48.870;12.562;2024-02-26T05:08:08;8.50;50.60
83828;DHT22;74656;48.870;12.562;2024-02-26T05:11:10;8.60;50.10
83828;DHT22;74656;48.870;12.562;2024-02-26T05:14:12;8.80;49.80
83828;DHT22;74656;48.870;12.562;2024-02-26T05:17:15;9.20;48.60
83828;DHT22;74656;48.870;12.562;2024-02-26T05:20:17;3.10;61.60
83828;DHT22;74656;48.870;12.562;2024-02-26T05:23:18;1.40;72.00
83828;DHT22;74656;48.870;12.562;2024-02-26T05:26:23;0.70;77.30
83828;DHT22;74656;48.870;12.562;2024-02-26T05:29:26;0.40;80.10
83828;DHT22;74656;48.870;12.562;2024-02-26T05:32:27;0.20;81.80
83828;DHT22;74656;48.870;12.562;2024-02-26T05:35:29;0.10;83.10
83828;DHT22;74656;48.870;12.562;2024-02-26T05:38:32;0.00;84.00
83828;DHT22;74656;48.870;12.562;2024-02-26T05:41:34;0.00;84.80
83828;DHT22;74656;48.870;12.562;2024-02-26T05:44:36;0.00;85.20
83828;DHT22;74656;48.870;12.562;2024-02-26T05:47:38;0.00;85.50
83828;DHT22;74656;48.870;12.562;2024-02-26T05:50:40;0.00;85.80
83828;DHT22;74656;48.870;12.562;2024-02-26T05:53:43;0.00;85.90
83828;DHT22;74656;48.870;12.562;2024-02-26T05:56:45;0.00;86.10
83828;DHT22;74656;48.870;12.562;2024-02-26T05:59:47;0.00;86.50
83828;DHT22;74656;48.870;12.562;2024-02-26T06:02:49;0.00;86.50
83828;DHT22;74656;48.870;12.562;2024-02-26T06:05:50;0.00;86.50
83828;DHT22;74656;48.870;12.562;2024-02-26T06:08:53;0.00;86.90
83828;DHT22;74656;48.870;12.562;2024-02-26T06:11:55;0.00;86.90
83828;DHT22;74656;48.870;12.562;2024-02-26T06:14:57;0.00;87.00
83828;DHT22;74656;48.870;12.562;2024-02-26T06:17:59;0.00;87.40
83828;DHT22;74656;48.870;12.562;2024-02-26T06:21:01;0.00;87.60
83828;DHT22;74656;48.870;12.562;2024-02-26T06:24:03;0.20;88.30
83828;DHT22;74656;48.870;12.562;2024-02-26T06:27:05;0.30;88.50
83828;DHT22;74656;48.870;12.562;2024-02-26T06:30:08;0.40;88.60
83828;DHT22;74656;48.870;12.562;2024-02-26T06:33:10;0.50;88.80
83828;DHT22;74656;48.870;12.562;2024-02-26T06:36:12;0.70;89.20
83828;DHT22;74656;48.870;12.562;2024-02-26T06:39:14;0.90;89.70
83828;DHT22;74656;48.870;12.562;2024-02-26T06:42:16;1.10;90.10
83828;DHT22;74656;48.870;12.562;2024-02-26T06:45:18;1.20;90.30
83828;DHT22;74656;48.870;12.562;2024-02-26T06:48:20;1.40;90.20
83828;DHT22;74656;48.870;12.562;2024-02-26T06:51:22;1.50;90.20
83828;DHT22;74656;48.870;12.562;2024-02-26T06:54:24;1.50;90.20
83828;DHT22;74656;48.870;12.562;2024-02-26T06:57:26;1.70;90.30
83828;DHT22;74656;48.870;12.562;2024-02-26T07:00:28;1.80;90.50
83828;DHT22;74656;48.870;12.562;2024-02-26T07:03:30;1.90;90.50
83828;DHT22;74656;48.870;12.562;2024-02-26T07:06:32;2.10;90.80
83828;DHT22;74656;48.870;12.562;2024-02-26T07:09:34;2.20;91.00
83828;DHT22;74656;48.870;12.562;2024-02-26T07:12:35;2.40;91.40
83828;DHT22;74656;48.870;12.562;2024-02-26T07:15:37;2.60;91.40
83828;DHT22;74656;48.870;12.562;2024-02-26T07:18:39;2.70;91.30
83828;DHT22;74656;48.870;12.562;2024-02-26T07:21:42;2.80;91.30
83828;DHT22;74656;48.870;12.562;2024-02-26T07:24:43;2.90;91.30
83828;DHT22;74656;48.870;12.562;2024-02-26T07:27:45;3.00;91.70
83828;DHT22;74656;48.870;12.562;2024-02-26T07:30:47;3.10;91.50
83828;DHT22;74656;48.870;12.562;2024-02-26T07:33:49;3.30;91.70
83828;DHT22;74656;48.870;12.562;2024-02-26T07:36:51;3.40;92.00
83828;DHT22;74656;48.870;12.562;2024-02-26T07:39:52;3.60;91.70
83828;DHT22;74656;48.870;12.562;2024-02-26T07:42:54;3.70;91.80
83828;DHT22;74656;48.870;12.562;2024-02-26T07:45:57;3.90;91.90
83828;DHT22;74656;48.870;12.562;2024-02-26T07:48:59;4.00;90.90
83828;DHT22;74656;48.870;12.562;2024-02-26T07:52:01;4.30;87.70
83828;DHT22;74656;48.870;12.562;2024-02-26T07:55:03;4.40;87.20
83828;DHT22;74656;48.870;12.562;2024-02-26T07:58:08;4.60;85.90
83828;DHT22;74656;48.870;12.562;2024-02-26T08:01:15;4.80;83.70
83828;DHT22;74656;48.870;12.562;2024-02-26T08:04:17;4.90;83.50
83828;DHT22;74656;48.870;12.562;2024-02-26T08:07:19;5.00;85.00
83828;DHT22;74656;48.870;12.562;2024-02-26T08:10:21;5.20;85.90
83828;DHT22;74656;48.870;12.562;2024-02-26T08:13:22;5.40;80.20
83828;DHT22;74656;48.870;12.562;2024-02-26T08:16:24;5.50;82.70
83828;DHT22;74656;48.870;12.562;2024-02-26T08:19:28;5.60;81.60
83828;DHT22;74656;48.870;12.562;2024-02-26T08:22:30;5.70;83.30
83828;DHT22;74656;48.870;12.562;2024-02-26T08:25:32;5.90;85.10
83828;DHT22;74656;48.870;12.562;2024-02-26T08:28:34;6.10;81.60
83828;DHT22;74656;48.870;12.562;2024-02-26T08:31:35;6.10;82.50
83828;DHT22;74656;48.870;12.562;2024-02-26T08:34:37;6.20;80.70
83828;DHT22;74656;48.870;12.562;2024-02-26T08:37:39;6.30;79.10
83828;DHT22;74656;48.870;12.562;2024-02-26T08:40:41;6.40;77.90
83828;DHT22;74656;48.870;12.562;2024-02-26T08:43:42;6.30;77.80
83828;DHT22;74656;48.870;12.562;2024-02-26T08:47:05;6.40;76.80
83828;DHT22;74656;48.870;12.562;2024-02-26T08:50:07;6.50;75.40
83828;DHT22;74656;48.870;12.562;2024-02-26T08:53:10;6.60;74.50
83828;DHT22;74656;48.870;12.562;2024-02-26T08:56:12;6.80;72.10
83828;DHT22;74656;48.870;12.562;2024-02-26T08:59:14;6.80;72.00
83828;DHT22;74656;48.870;12.562;2024-02-26T09:02:16;7.00;70.60
83828;DHT22;74656;48.870;12.562;2024-02-26T09:05:18;7.00;68.90
83828;DHT22;74656;48.870;12.562;2024-02-26T09:08:20;7.20;68.00
83828;DHT22;74656;48.870;12.562;2024-02-26T09:11:22;7.40;66.10
83828;DHT22;74656;48.870;12.562;2024-02-26T09:14:24;7.40;63.10
83828;DHT22;74656;48.870;12.562;2024-02-26T09:17:29;7.60;63.10
83828;DHT22;74656;48.870;12.562;2024-02-26T09:20:31;7.70;62.00
83828;DHT22;74656;48.870;12.562;2024-02-26T09:23:33;7.90;61.80
83828;DHT22;74656;48.870;12.562;2024-02-26T09:26:35;7.80;61.50
83828;DHT22;74656;48.870;12.562;2024-02-26T09:29:37;7.70;61.00
83828;DHT22;74656;48.870;12.562;2024-02-26T09:32:40;7.60;62.30
83828;DHT22;74656;48.870;12.562;2024-02-26T09:35:41;7.80;62.60
83828;DHT22;74656;48.870;12.562;2024-02-26T09:38:43;8.00;61.20
83828;DHT22;74656;48.870;12.562;2024-02-26T09:42:04;7.90;61.10
83828;DHT22;74656;48.870;12.562;2024-02-26T09:45:10;8.00;61.50
83828;DHT22;74656;48.870;12.562;2024-02-26T09:48:12;7.90;61.40
83828;DHT22;74656;48.870;12.562;2024-02-26T09:51:16;8.40;61.50
83828;DHT22;74656;48.870;12.562;2024-02-26T09:54:19;8.70;61.40
83828;DHT22;74656;48.870;12.562;2024-02-26T09:57:21;9.00;59.80
83828;DHT22;74656;48.870;12.562;2024-02-26T10:00:24;9.20;59.00
83828;DHT22;74656;48.870;12.562;2024-02-26T10:03:43;9.40;57.00
83828;DHT22;74656;48.870;12.562;2024-02-26T10:06:46;9.20;56.40
83828;DHT22;74656;48.870;12.562;2024-02-26T10:09:48;9.60;57.00
83828;DHT22;74656;48.870;12.562;2024-02-26T10:12:51;9.90;56.00
83828;DHT22;74656;48.870;12.562;2024-02-26T10:15:53;10.10;54.20
83828;DHT22;74656;48.870;12.562;2024-02-26T10:18:55;10.20;54.90
83828;DHT22;74656;48.870;12.562;2024-02-26T10:22:01;10.70;54.70
83828;DHT22;74656;48.870;12.562;2024-02-26T10:25:03;11.10;53.40
83828;DHT22;74656;48.870;12.562;2024-02-26T10:28:06;11.30;51.40
83828;DHT22;74656;48.870;12.562;2024-02-26T10:31:10;11.30;52.20
83828;DHT22;74656;48.870;12.562;2024-02-26T10:34:12;11.50;52.10
83828;DHT22;74656;48.870;12.562;2024-02-26T10:37:14;12.00;50.90
83828;DHT22;74656;48.870;12.562;2024-02-26T10:40:16;12.60;49.30
83828;DHT22;74656;48.870;12.562;2024-02-26T10:43:19;12.80;48.40
83828;DHT22;74656;48.870;12.562;2024-02-26T10:46:20;12.90;47.80
83828;DHT22;74656;48.870;12.562;2024-02-26T10:49:22;13.00;48.00
83828;DHT22;74656;48.870;12.562;2024-02-26T10:52:25;13.00;48.30
83828;DHT22;74656;48.870;12.562;2024-02-26T10:55:29;12.60;47.80
83828;DHT22;74656;48.870;12.562;2024-02-26T10:58:32;12.30;48.40
83828;DHT22;74656;48.870;12.562;2024-02-26T11:01:35;12.40;48.60
83828;DHT22;74656;48.870;12.562;2024-02-26T11:04:38;12.50;48.60
83828;DHT22;74656;48.870;12.562;2024-02-26T11:07:41;12.40;47.30
83828;DHT22;74656;48.870;12.562;2024-02-26T11:10:44;12.30;47.30
83828;DHT22;74656;48.870;12.562;2024-02-26T11:13:47;12.10;47.30
83828;DHT22;74656;48.870;12.562;2024-02-26T11:16:50;11.90;48.70
83828;DHT22;74656;48.870;12.562;2024-02-26T11:19:55;12.10;48.00
83828;DHT22;74656;48.870;12.562;2024-02-26T11:22:58;12.00;48.00
83828;DHT22;74656;48.870;12.562;2024-02-26T11:26:01;12.10;48.20
83828;DHT22;74656;48.870;12.562;2024-02-26T11:29:04;12.10;49.80
83828;DHT22;74656;48.870;12.562;2024-02-26T11:32:06;12.30;50.10
83828;DHT22;74656;48.870;12.562;2024-02-26T11:35:09;12.30;50.60
83828;DHT22;74656;48.870;12.562;2024-02-26T11:38:19;12.40;50.30
83828;DHT22;74656;48.870;12.562;2024-02-26T11:41:22;12.30;49.30
83828;DHT22;74656;48.870;12.562;2024-02-26T11:44:30;12.10;51.10
83828;DHT22;74656;48.870;12.562;2024-02-26T11:47:34;11.90;57.90
83828;DHT22;74656;48.870;12.562;2024-02-26T11:50:39;12.00;53.20
83828;DHT22;74656;48.870;12.562;2024-02-26T11:53:48;12.20;51.80
83828;DHT22;74656;48.870;12.562;2024-02-26T11:56:50;12.10;51.00
83828;DHT22;74656;48.870;12.562;2024-02-26T11:59:52;12.10;50.10
83828;DHT22;74656;48.870;12.562;2024-02-26T12:02:55;12.10;49.70
83828;DHT22;74656;48.870;12.562;2024-02-26T12:05:57;12.30;48.20
83828;DHT22;74656;48.870;12.562;2024-02-26T12:08:59;12.40;47.70
83828;DHT22;74656;48.870;12.562;2024-02-26T12:12:13;12.10;47.60
83828;DHT22;74656;48.870;12.562;2024-02-26T12:15:19;11.90;49.80
83828;DHT22;74656;48.870;12.562;2024-02-26T12:18:24;12.00;48.80
83828;DHT22;74656;48.870;12.562;2024-02-26T12:21:26;11.90;48.90
83828;DHT22;74656;48.870;12.562;2024-02-26T12:24:28;12.00;49.60
83828;DHT22;74656;48.870;12.562;2024-02-26T12:27:30;12.20;49.40
83828;DHT22;74656;48.870;12.562;2024-02-26T12:30:33;12.40;49.00
83828;DHT22;74656;48.870;12.562;2024-02-26T12:33:36;12.60;48.80
83828;DHT22;74656;48.870;12.562;2024-02-26T12:36:38;12.50;49.50
83828;DHT22;74656;48.870;12.562;2024-02-26T12:39:40;12.70;49.20
83828;DHT22;74656;48.870;12.562;2024-02-26T12:42:42;13.10;47.50
83828;DHT22;74656;48.870;12.562;2024-02-26T12:45:45;13.10;47.20
83828;DHT22;74656;48.870;12.562;2024-02-26T12:48:47;13.30;46.20
83828;DHT22;74656;48.870;12.562;2024-02-26T12:51:50;13.20;45.70
83828;DHT22;74656;48.870;12.562;2024-02-26T12:54:52;13.40;45.60
83828;DHT22;74656;48.870;12.562;2024-02-26T12:57:55;13.40;45.30
83828;DHT22;74656;48.870;12.562;2024-02-26T13:00:57;13.20;46.60
83828;DHT22;74656;48.870;12.562;2024-02-26T13:04:02;13.30;46.70
83828;DHT22;74656;48.870;12.562;2024-02-26T13:07:04;13.60;45.00
83828;DHT22;74656;48.870;12.562;2024-02-26T13:10:08;13.80;45.00
83828;DHT22;74656;48.870;12.562;2024-02-26T13:13:10;14.10;44.90
83828;DHT22;74656;48.870;12.562;2024-02-26T13:16:14;14.30;45.00
83828;DHT22;74656;48.870;12.562;2024-02-26T13:19:17;15.00;44.60
83828;DHT22;74656;48.870;12.562;2024-02-26T13:22:21;15.40;44.50
83828;DHT22;74656;48.870;12.562;2024-02-26T13:25:23;16.20;43.80
83828;DHT22;74656;48.870;12.562;2024-02-26T13:28:25;17.40;40.80
83828;DHT22;74656;48.870;12.562;2024-02-26T13:31:27;18.10;39.10
83828;DHT22;74656;48.870;12.562;2024-02-26T13:34:29;18.40;38.50
83828;DHT22;74656;48.870;12.562;2024-02-26T13:37:31;18.80;37.10
83828;DHT22;74656;48.870;12.562;2024-02-26T13:40:34;18.80;36.40
83828;DHT22;74656;48.870;12.562;2024-02-26T13:43:36;19.30;36.10
83828;DHT22;74656;48.870;12.562;2024-02-26T13:46:39;20.20;35.60
83828;DHT22;74656;48.870;12.562;2024-02-26T13:49:41;20.40;34.10
83828;DHT22;74656;48.870;12.562;2024-02-26T13:52:43;20.20;33.50
83828;DHT22;74656;48.870;12.562;2024-02-26T13:55:45;21.00;32.80
83828;DHT22;74656;48.870;12.562;2024-02-26T13:58:47;20.90;32.20
83828;DHT22;74656;48.870;12.562;2024-02-26T14:01:49;21.60;31.80
83828;DHT22;74656;48.870;12.562;2024-02-26T14:04:52;21.10;32.10
83828;DHT22;74656;48.870;12.562;2024-02-26T14:07:53;21.00;32.60
83828;DHT22;74656;48.870;12.562;2024-02-26T14:10:56;20.10;33.00
83828;DHT22;74656;48.870;12.562;2024-02-26T14:13:58;19.50;34.20
83828;DHT22;74656;48.870;12.562;2024-02-26T14:16:59;20.20;33.80
83828;DHT22;74656;48.870;12.562;2024-02-26T14:20:02;20.50;33.30
83828;DHT22;74656;48.870;12.562;2024-02-26T14:23:04;19.40;33.90
83828;DHT22;74656;48.870;12.562;2024-02-26T14:26:06;20.10;32.90
83828;DHT22;74656;48.870;12.562;2024-02-26T14:29:08;21.50;31.30
83828;DHT22;74656;48.870;12.562;2024-02-26T14:32:10;21.60;31.40
83828;DHT22;74656;48.870;12.562;2024-02-26T14:35:12;22.90;29.60
83828;DHT22;74656;48.870;12.562;2024-02-26T14:38:18;22.30;29.90
83828;DHT22;74656;48.870;12.562;2024-02-26T14:41:20;22.90;29.20
83828;DHT22;74656;48.870;12.562;2024-02-26T14:44:22;22.80;29.10
83828;DHT22;74656;48.870;12.562;2024-02-26T14:47:24;22.40;29.10
83828;DHT22;74656;48.870;12.562;2024-02-26T14:50:26;21.70;29.90
83828;DHT22;74656;48.870;12.562;2024-02-26T14:53:28;20.10;31.40
83828;DHT22;74656;48.870;12.562;2024-02-26T14:56:30;19.70;31.80
83828;DHT22;74656;48.870;12.562;2024-02-26T14:59:33;20.30;32.40
83828;DHT22;74656;48.870;12.562;2024-02-26T15:02:34;20.10;30.90
83828;DHT22;74656;48.870;12.562;2024-02-26T15:05:37;19.30;32.50
83828;DHT22;74656;48.870;12.562;2024-02-26T15:08:39;18.20;33.80
83828;DHT22;74656;48.870;12.562;2024-02-26T15:11:41;18.10;34.80
83828;DHT22;74656;48.870;12.562;2024-02-26T15:14:43;17.50;35.70
83828;DHT22;74656;48.870;12.562;2024-02-26T15:17:45;17.00;37.60
83828;DHT22;74656;48.870;12.562;2024-02-26T15:20:47;17.30;37.80
83828;DHT22;74656;48.870;12.562;2024-02-26T15:23:49;17.40;35.80
83828;DHT22;74656;48.870;12.562;2024-02-26T15:27:05;16.90;37.20
83828;DHT22;74656;48.870;12.562;2024-02-26T15:30:08;16.60;38.10
83828;DHT22;74656;48.870;12.562;2024-02-26T15:33:11;16.50;38.50
83828;DHT22;74656;48.870;12.562;2024-02-26T15:36:13;15.70;40.30
83828;DHT22;74656;48.870;12.562;2024-02-26T15:39:15;15.10;42.00
83828;DHT22;74656;48.870;12.562;2024-02-26T15:42:18;14.90;42.90
83828;DHT22;74656;48.870;12.562;2024-02-26T15:45:20;15.10;45.10
83828;DHT22;74656;48.870;12.562;2024-02-26T15:48:22;16.00;41.80
83828;DHT22;74656;48.870;12.562;2024-02-26T15:51:25;15.80;41.00
83828;DHT22;74656;48.870;12.562;2024-02-26T15:54:27;15.00;42.80
83828;DHT22;74656;48.870;12.562;2024-02-26T15:57:28;14.90;44.30
83828;DHT22;74656;48.870;12.562;2024-02-26T16:00:31;14.70;43.40
83828;DHT22;74656;48.870;12.562;2024-02-26T16:03:39;14.40;44.40
83828;DHT22;74656;48.870;12.562;2024-02-26T16:06:41;13.80;44.40
83828;DHT22;74656;48.870;12.562;2024-02-26T16:09:50;13.40;45.90
83828;DHT22;74656;48.870;12.562;2024-02-26T16:12:58;12.90;46.80
83828;DHT22;74656;48.870;12.562;2024-02-26T16:16:09;12.30;47.40
83828;DHT22;74656;48.870;12.562;2024-02-26T16:19:15;11.80;48.80
83828;DHT22;74656;48.870;12.562;2024-02-26T16:22:22;11.20;50.70
83828;DHT22;74656;48.870;12.562;2024-02-26T16:25:24;11.00;51.90
83828;DHT22;74656;48.870;12.562;2024-02-26T16:28:26;10.90;52.50
83828;DHT22;74656;48.870;12.562;2024-02-26T16:31:28;10.70;53.20
83828;DHT22;74656;48.870;12.562;2024-02-26T16:34:30;10.40;53.80
83828;DHT22;74656;48.870;12.562;2024-02-26T16:37:33;10.00;54.50
83828;DHT22;74656;48.870;12.562;2024-02-26T16:40:36;10.00;55.00
83828;DHT22;74656;48.870;12.562;2024-02-26T16:43:38;9.90;55.50
83828;DHT22;74656;48.870;12.562;2024-02-26T16:46:40;9.60;56.00
83828;DHT22;74656;48.870;12.562;2024-02-26T16:49:43;9.50;56.30
83828;DHT22;74656;48.870;12.562;2024-02-26T16:52:44;9.30;56.60
83828;DHT22;74656;48.870;12.562;2024-02-26T16:55:46;9.20;58.70
83828;DHT22;74656;48.870;12.562;2024-02-26T16:58:48;9.30;58.10
83828;DHT22;74656;48.870;12.562;2024-02-26T17:01:50;9.20;57.50
83828;DHT22;74656;48.870;12.562;2024-02-26T17:04:53;9.00;58.10
83828;DHT22;74656;48.870;12.562;2024-02-26T17:07:55;9.00;58.50
83828;DHT22;74656;48.870;12.562;2024-02-26T17:10:57;8.90;58.70
83828;DHT22;74656;48.870;12.562;2024-02-26T17:14:00;8.70;59.80
83828;DHT22;74656;48.870;12.562;2024-02-26T17:17:02;8.60;59.90
83828;DHT22;74656;48.870;12.562;2024-02-26T17:20:07;8.70;60.10
83828;DHT22;74656;48.870;12.562;2024-02-26T17:23:09;8.60;60.40
83828;DHT22;74656;48.870;12.562;2024-02-26T17:26:24;8.50;60.90
83828;DHT22;74656;48.870;12.562;2024-02-26T17:29:26;8.60;60.50
83828;DHT22;74656;48.870;12.562;2024-02-26T17:32:28;8.30;61.80
83828;DHT22;74656;48.870;12.562;2024-02-26T17:35:30;8.20;62.30
83828;DHT22;74656;48.870;12.562;2024-02-26T17:38:32;8.20;62.40
83828;DHT22;74656;48.870;12.562;2024-02-26T17:41:34;8.30;61.90
83828;DHT22;74656;48.870;12.562;2024-02-26T17:44:39;8.10;62.60
83828;DHT22;74656;48.870;12.562;2024-02-26T17:47:42;7.90;63.10
83828;DHT22;74656;48.870;12.562;2024-02-26T17:50:44;7.70;63.80
83828;DHT22;74656;48.870;12.562;2024-02-26T17:53:45;7.60;64.40
83828;DHT22;74656;48.870;12.562;2024-02-26T17:56:48;7.50;64.90
83828;DHT22;74656;48.870;12.562;2024-02-26T17:59:50;7.50;65.10
83828;DHT22;74656;48.870;12.562;2024-02-26T18:02:52;7.30;65.50
83828;DHT22;74656;48.870;12.562;2024-02-26T18:05:55;7.30;66.10
83828;DHT22;74656;48.870;12.562;2024-02-26T18:08:57;7.20;66.20
83828;DHT22;74656;48.870;12.562;2024-02-26T18:11:59;7.30;65.80
83828;DHT22;74656;48.870;12.562;2024-02-26T18:15:05;7.20;67.50
83828;DHT22;74656;48.870;12.562;2024-02-26T18:18:07;7.30;66.70
83828;DHT22;74656;48.870;12.562;2024-02-26T18:21:10;7.30;65.30
83828;DHT22;74656;48.870;12.562;2024-02-26T18:24:12;7.40;64.80
83828;DHT22;74656;48.870;12.562;2024-02-26T18:27:14;7.30;65.50
83828;DHT22;74656;48.870;12.562;2024-02-26T18:30:17;7.30;69.20
83828;DHT22;74656;48.870;12.562;2024-02-26T18:33:20;7.30;66.70
83828;DHT22;74656;48.870;12.562;2024-02-26T18:36:22;7.20;66.10
83828;DHT22;74656;48.870;12.562;2024-02-26T18:39:25;7.20;65.90
83828;DHT22;74656;48.870;12.562;2024-02-26T18:42:27;7.20;65.20
83828;DHT22;74656;48.870;12.562;2024-02-26T18:45:29;7.10;65.70
83828;DHT22;74656;48.870;12.562;2024-02-26T18:48:32;7.00;66.00
83828;DHT22;74656;48.870;12.562;2024-02-26T18:51:38;7.00;66.40
83828;DHT22;74656;48.870;12.562;2024-02-26T18:54:41;7.10;65.30
83828;DHT22;74656;48.870;12.562;2024-02-26T18:57:43;7.10;65.30
83828;DHT22;74656;48.870;12.562;2024-02-26T19:00:45;7.10;65.20
83828;DHT22;74656;48.870;12.562;2024-02-26T19:03:48;7.00;65.50
83828;DHT22;74656;48.870;12.562;2024-02-26T19:06:50;7.00;66.20